Terminal Aerodrome Forecast
Issued by NWS Missoula, MT

Home | Current Version | Previous Version | Text Only | Print | Product List | Glossary On
Versions: 1 2 3 4 5 6 7 8 9 10 11 12 13 14 15 16 17 18 19 20 21 22 23 24 25 26 27
000
FTUS45 KMSO 232325
TAFBTM
TAF
KBTM 232325Z 2400/2424 25010KT P6SM BKN050 OVC060
     FM240300 29010KT 1SM -SN BR BKN020 OVC030
     FM241000 32006KT P6SM BKN030 OVC050=

USA.gov is the U.S. government's official web portal to all federal, state and local government web resources and services.